Time;durP1;ratioP1;P1;durP2;ratioP2;P2;SDS_P1;SDS_P2;PMS_P1;PMS_P2;Temp;Humidity;BMP_temperature;BMP_pressure;BME280_temperature;BME280_humidity;BME280_pressure;Samples;Min_cycle;Max_cycle;Signal;HPM_P1;HPM_P2
2022/10/12 00:02:09;;;;;;;4.20;3.00;;;;;;;15.02;73.38;97650.97;5087230;28;20618;-78
2022/10/12 00:04:36;;;;;;;5.27;3.00;;;;;;;15.04;73.32;97656.97;5087713;28;20194;-75
2022/10/12 00:07:03;;;;;;;4.03;2.87;;;;;;;14.98;73.29;97648.63;5086729;28;20188;-76
2022/10/12 00:09:29;;;;;;;4.03;2.97;;;;;;;14.72;74.24;97656.97;5087575;28;20790;-77
2022/10/12 00:11:56;;;;;;;3.97;3.10;;;;;;;14.62;75.32;97652.25;5086912;28;20199;-77
2022/10/12 00:14:23;;;;;;;6.07;3.37;;;;;;;14.76;74.93;97650.69;5087385;28;20252;-76
2022/10/12 00:16:50;;;;;;;4.17;3.30;;;;;;;14.76;74.74;97656.75;5085823;28;20184;-77
2022/10/12 00:19:21;;;;;;;3.53;3.23;;;;;;;14.85;74.50;97653.66;5086962;28;20481;-76
2022/10/12 00:21:48;;;;;;;6.50;3.30;;;;;;;14.91;73.85;97658.53;5087290;28;20532;-76
2022/10/12 00:24:15;;;;;;;6.63;3.43;;;;;;;14.82;74.19;97653.81;5086371;28;20454;-76
2022/10/12 00:26:42;;;;;;;7.83;3.27;;;;;;;14.77;73.95;97639.34;5087402;28;20240;-76
2022/10/12 00:29:09;;;;;;;4.50;2.93;;;;;;;14.84;73.96;97645.94;5086593;28;20188;-77
2022/10/12 00:31:36;;;;;;;3.83;3.17;;;;;;;14.78;74.52;97652.28;5086818;28;20228;-76
2022/10/12 00:34:03;;;;;;;4.07;3.03;;;;;;;14.91;73.89;97652.47;5086950;28;20230;-77
2022/10/12 00:36:33;;;;;;;7.70;3.03;;;;;;;14.86;73.90;97655.31;5086815;28;20192;-78
2022/10/12 00:39:03;;;;;;;4.90;3.27;;;;;;;14.72;74.85;97651.75;5087230;28;20178;-79
2022/10/12 00:41:38;;;;;;;3.67;3.00;;;;;;;14.68;75.11;97658.91;5085366;28;20185;-76
2022/10/12 00:44:38;;;;;;;4.37;3.10;;;;;;;14.93;74.26;97655.84;5085844;28;20224;-78
2022/10/12 00:47:17;;;;;;;4.23;3.00;;;;;;;15.08;73.26;97662.88;5086713;28;20309;-76
2022/10/12 00:49:51;;;;;;;5.27;3.10;;;;;;;15.01;73.46;97651.91;5086569;28;20610;-76
2022/10/12 00:52:21;;;;;;;4.30;3.30;;;;;;;14.98;73.02;97640.81;5085797;28;20201;-76
2022/10/12 00:54:52;;;;;;;4.83;3.17;;;;;;;15.14;72.90;97666.00;5086399;28;20193;-76
2022/10/12 00:57:21;;;;;;;5.90;3.33;;;;;;;15.18;72.44;97661.44;5087774;28;20700;-76
2022/10/12 01:00:01;;;;;;;3.73;3.10;;;;;;;15.11;72.74;97667.91;5085082;28;20283;-76
2022/10/12 01:02:31;;;;;;;3.93;3.23;;;;;;;15.07;73.06;97659.41;5086544;28;20208;-75
2022/10/12 01:05:00;;;;;;;6.63;3.43;;;;;;;15.00;73.26;97665.88;5086791;28;20298;-77
2022/10/12 01:07:26;;;;;;;5.27;3.20;;;;;;;14.97;73.39;97652.16;5086722;28;20192;-76
2022/10/12 01:09:53;;;;;;;8.20;3.67;;;;;;;14.74;73.61;97619.47;5087123;28;20855;-78
2022/10/12 01:12:21;;;;;;;5.77;3.10;;;;;;;14.81;73.85;97646.06;5086192;28;20713;-78
2022/10/12 01:14:49;;;;;;;4.20;3.63;;;;;;;14.80;73.94;97650.44;5086841;28;20252;-78
2022/10/12 01:17:37;;;;;;;4.67;3.10;;;;;;;14.85;73.59;97655.41;5086374;28;20624;-77
2022/10/12 01:20:41;;;;;;;6.03;3.20;;;;;;;14.69;74.55;97653.59;5086371;28;20268;-76
2022/10/12 01:23:37;;;;;;;7.20;3.30;;;;;;;14.76;74.47;97651.53;5087023;28;20214;-78
2022/10/12 01:26:25;;;;;;;7.40;3.40;;;;;;;14.89;74.31;97654.34;5086247;28;20202;-77
2022/10/12 01:29:14;;;;;;;5.63;3.40;;;;;;;15.08;73.29;97661.09;5084906;28;20281;-76
2022/10/12 01:31:56;;;;;;;4.27;3.17;;;;;;;15.14;73.04;97652.09;5086765;28;20231;-78
2022/10/12 01:34:27;;;;;;;5.10;3.13;;;;;;;15.19;73.38;97657.91;5086080;28;20220;-76
2022/10/12 01:37:09;;;;;;;4.93;3.03;;;;;;;15.18;72.79;97661.44;5085010;28;20192;-77
2022/10/12 01:39:43;;;;;;;5.50;3.13;;;;;;;15.15;72.58;97659.00;5090339;28;20588;-78
2022/10/12 01:42:18;;;;;;;4.97;3.03;;;;;;;15.03;73.73;97670.09;5089464;28;20201;-76
2022/10/12 01:44:45;;;;;;;4.37;3.27;;;;;;;15.14;72.91;97672.97;5090497;28;20194;-75
2022/10/12 01:47:12;;;;;;;3.70;3.00;;;;;;;15.16;72.80;97660.69;5089324;28;20188;-78
2022/10/12 01:49:40;;;;;;;5.07;3.53;;;;;;;15.26;72.62;97667.09;5090032;28;20184;-75
2022/10/12 01:52:15;;;;;;;3.93;3.20;;;;;;;15.25;72.73;97681.06;5089781;28;20188;-75
2022/10/12 01:55:01;;;;;;;4.90;2.77;;;;;;;15.21;73.06;97685.59;5091006;28;20222;-75
2022/10/12 01:57:56;;;;;;;7.27;3.30;;;;;;;15.21;73.03;97685.59;5091700;28;20268;-77
2022/10/12 02:00:23;;;;;;;5.77;3.77;;;;;;;15.22;72.86;97686.44;5089632;28;20188;-78
2022/10/12 02:03:15;;;;;;;4.20;3.40;;;;;;;15.11;73.26;97683.56;5089853;28;20636;-77
2022/10/12 02:06:05;;;;;;;4.30;3.20;;;;;;;14.86;73.53;97667.56;5089821;28;20188;-75
2022/10/12 02:08:43;;;;;;;4.40;2.97;;;;;;;14.76;73.70;97682.81;5089367;28;20280;-76
2022/10/12 02:11:13;;;;;;;3.73;2.87;;;;;;;14.88;74.07;97686.56;5091579;28;20215;-78
2022/10/12 02:13:55;;;;;;;5.57;2.50;;;;;;;14.92;73.28;97675.03;5091607;28;20220;-78
2022/10/12 02:16:30;;;;;;;5.10;2.50;;;;;;;14.97;72.48;97679.09;5091247;28;20252;-77
2022/10/12 02:18:59;;;;;;;4.20;2.80;;;;;;;14.91;73.19;97682.03;5088362;28;20248;-79
2022/10/12 02:21:31;;;;;;;3.90;2.40;;;;;;;14.97;72.99;97683.44;5088650;28;20648;-77
2022/10/12 02:24:03;;;;;;;4.93;3.70;;;;;;;15.03;72.85;97685.72;5089592;28;20220;-77
2022/10/12 02:26:35;;;;;;;5.37;2.90;;;;;;;15.19;72.43;97684.84;5088860;28;20295;-78
2022/10/12 02:29:09;;;;;;;4.67;2.80;;;;;;;15.19;72.38;97689.19;5088983;28;20194;-78
2022/10/12 02:31:56;;;;;;;4.53;3.30;;;;;;;15.31;72.05;97688.56;5071062;28;20261;-78
2022/10/12 02:34:33;;;;;;;5.73;3.20;;;;;;;15.22;72.26;97689.06;5088418;28;20608;-78
2022/10/12 02:37:10;;;;;;;5.27;3.60;;;;;;;15.12;72.63;97696.53;5089314;28;20184;-78
2022/10/12 02:39:47;;;;;;;5.23;3.60;;;;;;;15.23;72.60;97686.34;5088731;28;20517;-79
2022/10/12 02:42:20;;;;;;;4.27;3.00;;;;;;;15.25;72.12;97686.28;5088838;28;20306;-78
2022/10/12 02:44:48;;;;;;;7.07;3.50;;;;;;;15.12;72.09;97674.81;5089121;28;20226;-80
2022/10/12 02:47:16;;;;;;;5.50;3.30;;;;;;;15.18;72.19;97677.09;5088808;28;20652;-78
2022/10/12 02:49:45;;;;;;;5.40;2.90;;;;;;;15.25;72.18;97688.91;5088197;28;20215;-77
2022/10/12 02:52:12;;;;;;;9.70;3.37;;;;;;;15.31;72.03;97693.78;5088131;28;20223;-77
2022/10/12 02:54:39;;;;;;;7.93;5.60;;;;;;;15.29;72.35;97690.41;5089964;28;20283;-75
2022/10/12 02:57:07;;;;;;;7.73;5.23;;;;;;;15.22;72.79;97695.13;5089573;28;20188;-77
2022/10/12 02:59:34;;;;;;;6.67;5.57;;;;;;;15.20;72.71;97688.28;5088515;28;20708;-77
2022/10/12 03:02:01;;;;;;;4.33;3.67;;;;;;;15.17;73.28;97689.28;5088737;28;20219;-78
2022/10/12 03:04:27;;;;;;;11.30;6.60;;;;;;;15.13;72.96;97689.53;5088147;28;20736;-77
2022/10/12 03:06:54;;;;;;;19.33;11.57;;;;;;;15.06;73.56;97685.59;5088796;28;20215;-77
2022/10/12 03:09:21;;;;;;;6.83;4.30;;;;;;;14.95;73.92;97672.25;5087725;28;20188;-77
2022/10/12 03:11:49;;;;;;;11.63;4.83;;;;;;;15.05;73.29;97689.09;5088581;28;20227;-78
2022/10/12 03:14:16;;;;;;;8.07;4.83;;;;;;;15.25;73.04;97691.50;5088021;28;20220;-78
2022/10/12 03:16:45;;;;;;;9.80;5.20;;;;;;;15.28;72.69;97693.94;5088146;28;20192;-77
2022/10/12 03:19:12;;;;;;;7.73;4.13;;;;;;;15.27;72.22;97695.69;5088185;28;20664;-78
2022/10/12 03:21:40;;;;;;;6.37;4.80;;;;;;;15.38;72.15;97692.50;5087559;28;20687;-75
2022/10/12 03:24:07;;;;;;;7.17;4.17;;;;;;;15.39;71.74;97686.38;5088511;28;20189;-77
2022/10/12 03:26:33;;;;;;;6.67;4.00;;;;;;;15.53;71.40;97694.31;5087438;28;20275;-77
2022/10/12 03:29:01;;;;;;;7.43;4.33;;;;;;;15.51;71.05;97688.34;5088354;28;20192;-77
2022/10/12 03:31:28;;;;;;;6.57;3.93;;;;;;;15.44;71.29;97697.44;5087601;28;20219;-76
2022/10/12 03:33:54;;;;;;;8.13;4.40;;;;;;;15.39;71.89;97699.44;5087852;28;20223;-78
2022/10/12 03:36:21;;;;;;;9.37;5.17;;;;;;;15.46;71.51;97692.97;5080343;28;20209;-76
2022/10/12 03:38:48;;;;;;;9.73;3.60;;;;;;;15.32;72.46;97680.66;5077576;28;20301;-77
2022/10/12 03:41:15;;;;;;;6.10;3.57;;;;;;;15.26;73.05;97693.19;5067572;28;20193;-76
2022/10/12 03:43:42;;;;;;;5.73;3.07;;;;;;;15.20;73.03;97694.38;5067012;28;20248;-76
2022/10/12 03:46:09;;;;;;;6.53;2.97;;;;;;;15.02;73.33;97678.84;5067806;28;20577;-76
2022/10/12 03:48:37;;;;;;;7.53;3.43;;;;;;;15.08;73.70;97688.97;5074350;28;20480;-77
2022/10/12 03:51:04;;;;;;;7.90;3.60;;;;;;;14.90;74.78;97695.97;5078633;28;20208;-77
2022/10/12 03:53:31;;;;;;;6.80;4.07;;;;;;;14.85;75.17;97692.78;5087744;28;20737;-78
2022/10/12 03:56:00;;;;;;;8.17;4.70;;;;;;;14.74;75.88;97691.63;5055214;28;20204;-77
2022/10/12 03:58:27;;;;;;;11.43;4.70;;;;;;;14.74;75.47;97686.41;5067530;28;20659;-79
2022/10/12 04:00:57;;;;;;;9.27;5.77;;;;;;;14.61;75.88;97674.03;5067080;28;20197;-77
2022/10/12 04:04:09;;;;;;;11.03;5.47;;;;;;;14.88;75.46;97689.16;5080564;28;20298;-77
2022/10/12 04:06:36;;;;;;;9.13;5.97;;;;;;;14.73;75.42;97692.56;5067121;28;20659;-80
2022/10/12 04:09:03;;;;;;;14.30;5.00;;;;;;;14.68;75.91;97688.44;5065723;28;20675;-76
2022/10/12 04:11:31;;;;;;;7.13;4.70;;;;;;;14.77;75.42;97689.72;5048221;28;20205;-78
2022/10/12 04:13:58;;;;;;;9.47;4.50;;;;;;;14.62;76.30;97690.50;5046580;28;20686;-78
2022/10/12 04:16:25;;;;;;;7.40;4.67;;;;;;;14.49;76.37;97685.06;5047492;28;20246;-78
2022/10/12 04:18:57;;;;;;;4.80;4.00;;;;;;;14.39;76.90;97689.06;5046152;28;20225;-77
2022/10/12 04:21:24;;;;;;;6.53;4.57;;;;;;;14.32;77.77;97692.06;5029165;28;20195;-78
2022/10/12 04:23:51;;;;;;;7.97;4.23;;;;;;;14.23;77.65;97693.34;5046367;28;20223;-77
2022/10/12 04:26:18;;;;;;;8.43;4.80;;;;;;;14.23;78.18;97697.69;5046364;28;20178;-78
2022/10/12 04:28:45;;;;;;;5.57;4.20;;;;;;;14.24;77.60;97699.41;5045138;28;20553;-78
2022/10/12 04:31:12;;;;;;;7.50;4.90;;;;;;;14.25;77.85;97696.72;5044913;28;20233;-77
2022/10/12 04:33:39;;;;;;;9.60;5.63;;;;;;;14.32;77.54;97698.09;5046902;28;20726;-77
2022/10/12 04:36:06;;;;;;;7.87;5.17;;;;;;;14.34;77.48;97701.47;5046216;28;20199;-78
2022/10/12 04:38:34;;;;;;;10.23;5.10;;;;;;;14.40;77.13;97700.34;5047021;28;20272;-78
2022/10/12 04:41:01;;;;;;;10.83;6.30;;;;;;;14.52;76.89;97700.56;5046688;28;20188;-79
2022/10/12 04:43:27;;;;;;;9.30;5.27;;;;;;;14.64;76.58;97697.34;5046460;28;20200;-78
2022/10/12 04:45:57;;;;;;;7.43;4.80;;;;;;;14.72;76.30;97707.38;5046173;28;20190;-78
2022/10/12 04:48:25;;;;;;;10.97;6.60;;;;;;;14.65;76.00;97685.97;5046133;28;20661;-77
2022/10/12 04:50:52;;;;;;;6.03;5.10;;;;;;;14.73;75.97;97708.22;5046780;28;20246;-78
2022/10/12 04:53:20;;;;;;;6.80;4.90;;;;;;;14.66;76.06;97699.84;5046041;28;20187;-79
2022/10/12 04:55:47;;;;;;;10.63;5.00;;;;;;;14.56;76.73;97694.28;5047423;28;20727;-79
2022/10/12 04:58:14;;;;;;;10.70;5.30;;;;;;;14.56;76.22;97689.06;5046318;28;20200;-78
2022/10/12 05:00:41;;;;;;;11.03;5.77;;;;;;;14.64;75.75;97691.28;5046488;28;20190;-77
2022/10/12 05:03:14;;;;;;;6.90;5.57;;;;;;;14.78;75.65;97693.16;5045598;28;20255;-77
2022/10/12 05:05:43;;;;;;;6.47;5.23;;;;;;;14.95;74.88;97708.78;5028177;28;20581;-76
2022/10/12 05:08:11;;;;;;;8.77;6.20;;;;;;;15.04;74.83;97705.69;5046353;28;20332;-77
2022/10/12 05:10:39;;;;;;;10.87;6.37;;;;;;;15.04;74.70;97703.09;5045764;28;20286;-77
2022/10/12 05:13:07;;;;;;;8.70;5.67;;;;;;;15.10;74.34;97702.75;5048356;28;20184;-77
2022/10/12 05:15:34;;;;;;;11.07;5.97;;;;;;;15.09;73.81;97698.44;5048425;28;20300;-79
2022/10/12 05:18:02;;;;;;;10.60;5.53;;;;;;;15.15;73.42;97706.81;5050495;28;20673;-77
2022/10/12 05:20:29;;;;;;;9.77;6.10;;;;;;;15.24;73.56;97716.75;5049806;28;20872;-76
2022/10/12 05:22:57;;;;;;;11.73;6.13;;;;;;;15.30;73.08;97718.19;5049940;28;20287;-78
2022/10/12 05:25:24;;;;;;;15.10;6.23;;;;;;;15.37;72.74;97717.75;5049990;28;20190;-76
2022/10/12 05:27:52;;;;;;;11.17;5.37;;;;;;;15.36;72.94;97707.41;5048113;28;20629;-77
2022/10/12 05:30:23;;;;;;;14.60;6.17;;;;;;;15.43;72.51;97722.69;5048899;28;20278;-77
2022/10/12 05:32:51;;;;;;;11.90;6.13;;;;;;;15.26;72.56;97701.84;5050184;28;20244;-78
2022/10/12 05:35:19;;;;;;;11.70;6.33;;;;;;;15.35;72.20;97718.78;5049663;28;20222;-75
2022/10/12 05:37:46;;;;;;;11.57;5.70;;;;;;;15.40;72.31;97714.16;5049548;28;20190;-77
2022/10/12 05:40:14;;;;;;;9.87;6.23;;;;;;;15.46;72.13;97721.69;5049629;28;20673;-78
2022/10/12 05:42:41;;;;;;;13.43;5.87;;;;;;;15.59;71.72;97732.31;5049987;28;20205;-78
2022/10/12 05:45:10;;;;;;;8.17;5.50;;;;;;;15.63;71.37;97726.84;5047878;28;20252;-76
2022/10/12 05:47:38;;;;;;;10.70;5.77;;;;;;;15.62;70.93;97727.75;5052994;28;20204;-78
2022/10/12 05:50:08;;;;;;;8.03;5.20;;;;;;;15.71;70.83;97731.63;5063508;28;20208;-76
2022/10/12 05:52:40;;;;;;;11.67;7.60;;;;;;;15.82;70.83;97740.56;5069679;28;20192;-76
2022/10/12 05:55:09;;;;;;;17.63;7.40;;;;;;;15.90;70.09;97732.31;5069751;28;20227;-77
2022/10/12 05:57:37;;;;;;;13.37;5.87;;;;;;;15.86;70.53;97747.31;5049402;28;20190;-76
2022/10/12 06:00:14;;;;;;;13.20;5.03;;;;;;;15.82;70.64;97743.19;5049443;28;20276;-76
2022/10/12 06:02:42;;;;;;;15.70;5.57;;;;;;;15.84;70.78;97754.38;5049747;28;20200;-76
2022/10/12 06:05:09;;;;;;;9.97;5.30;;;;;;;15.80;71.18;97758.09;5048221;28;20251;-78
2022/10/12 06:07:37;;;;;;;8.37;5.47;;;;;;;15.72;71.30;97749.84;5019242;28;20327;-77
2022/10/12 06:10:05;;;;;;;9.07;4.90;;;;;;;15.83;71.51;97755.31;5047633;28;20203;-78
2022/10/12 06:12:32;;;;;;;10.23;5.90;;;;;;;15.73;71.37;97755.88;5047811;28;20198;-77
2022/10/12 06:14:59;;;;;;;7.17;5.10;;;;;;;15.61;71.89;97762.63;5048529;28;20233;-75
2022/10/12 06:17:28;;;;;;;7.33;4.80;;;;;;;15.71;71.90;97766.44;5048880;28;20649;-76
2022/10/12 06:19:57;;;;;;;9.03;4.20;;;;;;;15.70;71.31;97753.47;5046983;28;20202;-75
2022/10/12 06:22:24;;;;;;;7.13;4.23;;;;;;;15.69;71.72;97765.66;5031267;28;20190;-75
2022/10/12 06:24:55;;;;;;;7.87;4.17;;;;;;;15.72;71.56;97775.97;5047561;28;20204;-76
2022/10/12 06:27:22;;;;;;;8.73;4.30;;;;;;;15.82;71.33;97766.69;5048559;28;20724;-76
2022/10/12 06:29:50;;;;;;;6.67;4.10;;;;;;;15.88;70.62;97773.34;5030169;28;20200;-74
2022/10/12 06:32:18;;;;;;;13.27;4.67;;;;;;;15.97;70.12;97771.06;5030320;28;20225;-77
2022/10/12 06:34:47;;;;;;;11.03;4.50;;;;;;;15.92;69.90;97761.78;5068523;28;20275;-76
2022/10/12 06:37:16;;;;;;;8.70;4.57;;;;;;;16.01;70.51;97777.78;5085739;28;20213;-76
2022/10/12 06:40:06;;;;;;;15.47;5.50;;;;;;;16.12;69.01;97778.03;5089045;28;20197;-76
2022/10/12 06:42:35;;;;;;;13.87;5.10;;;;;;;16.14;69.70;97789.25;5088951;28;20192;-77
2022/10/12 06:45:07;;;;;;;6.53;3.57;;;;;;;16.08;69.62;97776.53;5091478;28;20610;-76
2022/10/12 06:47:38;;;;;;;5.60;4.00;;;;;;;15.94;69.66;97763.41;5054446;28;20186;-76
2022/10/12 06:50:08;;;;;;;7.27;3.90;;;;;;;15.89;69.88;97761.97;5048694;28;20194;-77
2022/10/12 06:52:38;;;;;;;6.93;4.40;;;;;;;15.77;70.25;97762.63;5048497;28;20190;-77
2022/10/12 06:55:07;;;;;;;5.90;4.07;;;;;;;15.84;70.31;97783.13;5049505;28;20321;-75
2022/10/12 06:57:37;;;;;;;11.10;5.10;;;;;;;15.74;71.18;97773.25;5047337;28;20244;-76
2022/10/12 07:00:09;;;;;;;8.77;4.83;;;;;;;15.59;70.82;97761.88;5046819;28;20217;-75
2022/10/12 07:02:39;;;;;;;9.27;5.80;;;;;;;15.69;71.32;97790.94;5030088;28;20202;-77
2022/10/12 07:05:07;;;;;;;14.13;4.77;;;;;;;15.67;71.78;97783.19;5048502;28;20182;-77
2022/10/12 07:07:35;;;;;;;10.43;4.43;;;;;;;15.52;72.08;97784.00;5050093;28;20190;-80
2022/10/12 07:10:05;;;;;;;10.17;5.23;;;;;;;15.57;72.31;97800.28;5073791;28;20199;-77
2022/10/12 07:12:36;;;;;;;6.77;4.17;;;;;;;15.56;71.73;97775.06;5070543;28;20633;-78
2022/10/12 07:15:05;;;;;;;9.87;5.07;;;;;;;15.74;71.49;97789.78;5087586;28;20229;-79
2022/10/12 07:17:32;;;;;;;14.67;5.20;;;;;;;16.03;70.56;97801.25;5088763;28;20204;-76
2022/10/12 07:20:01;;;;;;;8.33;5.40;;;;;;;16.22;70.00;97788.81;5088140;28;20197;-78
2022/10/12 07:22:29;;;;;;;9.17;5.20;;;;;;;16.43;69.35;97807.66;5087732;28;20195;-79
2022/10/12 07:24:56;;;;;;;15.10;5.97;;;;;;;16.48;69.83;97805.66;5087096;28;20558;-75
2022/10/12 07:27:27;;;;;;;8.47;4.77;;;;;;;16.58;68.45;97791.16;5086195;28;20363;-79
2022/10/12 07:29:55;;;;;;;9.13;5.03;;;;;;;16.49;69.02;97794.25;5085196;28;20192;-78
2022/10/12 07:32:22;;;;;;;9.23;5.90;;;;;;;16.45;69.60;97797.97;5086892;28;20228;-76
2022/10/12 07:34:49;;;;;;;9.77;4.80;;;;;;;16.64;69.24;97798.63;5086633;28;20306;-75
2022/10/12 07:37:16;;;;;;;9.00;3.80;;;;;;;16.80;67.40;97804.66;5086594;28;20700;-76
2022/10/12 07:39:44;;;;;;;5.17;3.13;;;;;;;16.95;66.67;97806.38;5086968;28;20196;-78
2022/10/12 07:42:11;;;;;;;9.23;3.17;;;;;;;17.03;65.55;97804.16;5086502;28;20231;-74
2022/10/12 07:44:45;;;;;;;6.50;3.23;;;;;;;17.15;65.67;97805.19;5078546;28;20357;-74
2022/10/12 07:47:12;;;;;;;7.90;3.93;;;;;;;17.21;65.45;97797.81;5065665;28;20244;-73
2022/10/12 07:49:39;;;;;;;7.00;3.57;;;;;;;17.20;64.54;97811.00;5065359;28;20194;-74
2022/10/12 07:52:06;;;;;;;4.70;3.07;;;;;;;17.30;64.38;97805.13;5065090;28;20204;-74
2022/10/12 07:54:33;;;;;;;6.47;2.77;;;;;;;17.42;63.88;97807.00;5066390;28;20241;-76
2022/10/12 07:57:00;;;;;;;6.63;3.33;;;;;;;17.43;64.38;97798.22;5066428;28;20762;-73
2022/10/12 07:59:27;;;;;;;9.33;5.03;;;;;;;17.54;63.44;97806.28;5064671;28;20189;-74
2022/10/12 08:01:55;;;;;;;4.90;2.50;;;;;;;17.46;63.54;97805.88;5065450;28;20203;-75
2022/10/12 08:04:22;;;;;;;4.77;3.00;;;;;;;17.41;64.23;97807.97;5065756;28;20635;-73
2022/10/12 08:06:49;;;;;;;5.90;3.43;;;;;;;17.33;64.32;97799.69;5066259;28;20285;-73
2022/10/12 08:09:16;;;;;;;11.83;9.33;;;;;;;17.55;63.45;97801.91;5066103;28;20224;-75
2022/10/12 08:11:43;;;;;;;4.90;3.10;;;;;;;17.82;62.24;97808.06;5066192;28;20194;-74
2022/10/12 08:14:14;;;;;;;7.57;3.47;;;;;;;18.07;61.96;97808.19;5066215;28;20243;-73
2022/10/12 08:16:42;;;;;;;6.00;3.10;;;;;;;18.22;61.27;97806.34;5065936;28;20237;-74
2022/10/12 08:19:10;;;;;;;6.43;3.63;;;;;;;18.17;61.18;97801.44;5066765;28;20244;-75
2022/10/12 08:21:37;;;;;;;7.30;3.50;;;;;;;18.45;60.85;97808.38;5065874;28;20631;-73
2022/10/12 08:24:06;;;;;;;8.37;3.17;;;;;;;18.37;60.25;97805.38;5066843;28;20315;-76
2022/10/12 08:26:33;;;;;;;8.73;5.27;;;;;;;18.59;59.43;97805.69;5065923;28;20281;-73
2022/10/12 08:29:01;;;;;;;14.60;5.80;;;;;;;18.68;58.96;97800.69;5066112;28;20190;-73
2022/10/12 08:31:29;;;;;;;9.47;4.27;;;;;;;18.69;59.08;97812.88;5066048;28;20730;-77
2022/10/12 08:33:56;;;;;;;8.50;2.80;;;;;;;18.76;58.28;97796.72;5066160;28;20252;-75
2022/10/12 08:36:24;;;;;;;5.40;3.07;;;;;;;18.92;58.40;97805.28;5066189;28;20694;-78
2022/10/12 08:38:55;;;;;;;6.37;3.00;;;;;;;18.95;57.96;97802.44;5065715;28;20238;-74
2022/10/12 08:41:36;;;;;;;5.30;2.80;;;;;;;19.12;57.65;97803.00;5065315;28;20692;-73
2022/10/12 08:44:22;;;;;;;10.80;3.40;;;;;;;19.12;57.57;97803.00;5065891;28;20534;-74
2022/10/12 08:46:55;;;;;;;11.27;6.13;;;;;;;19.08;57.29;97793.59;5047112;28;20205;-76
2022/10/12 08:49:25;;;;;;;9.00;4.27;;;;;;;19.14;57.61;97790.59;5049933;28;20275;-75
2022/10/12 08:51:56;;;;;;;6.23;3.13;;;;;;;19.32;57.22;97799.84;5049384;28;20316;-77
2022/10/12 08:54:28;;;;;;;6.07;2.80;;;;;;;19.31;56.79;97787.63;5050463;28;20219;-77
2022/10/12 08:56:56;;;;;;;10.30;3.10;;;;;;;18.69;57.98;97793.69;5050106;28;20670;-79
2022/10/12 08:59:25;;;;;;;9.30;3.77;;;;;;;18.61;59.01;97788.91;5062142;28;20635;-77
2022/10/12 09:02:12;;;;;;;5.37;2.50;;;;;;;18.86;58.38;97790.75;5086810;28;20191;-76
2022/10/12 09:05:28;;;;;;;6.33;2.87;;;;;;;18.69;58.88;97784.00;5068187;28;20674;-77
2022/10/12 09:08:24;;;;;;;4.53;2.80;;;;;;;18.86;58.87;97782.88;5062538;28;20210;-77
2022/10/12 09:11:12;;;;;;;9.87;3.17;;;;;;;18.99;58.30;97789.00;5067829;28;20839;-77
2022/10/12 09:14:00;;;;;;;5.30;2.87;;;;;;;19.16;58.23;97779.97;5061022;28;20191;-76
2022/10/12 09:16:36;;;;;;;5.77;2.90;;;;;;;19.63;57.01;97790.69;5049768;28;20232;-77
2022/10/12 09:19:19;;;;;;;7.10;3.23;;;;;;;19.71;56.75;97788.38;5049302;28;20213;-77
2022/10/12 09:21:48;;;;;;;6.73;3.60;;;;;;;19.95;55.81;97785.78;5049390;28;20217;-77
2022/10/12 09:24:25;;;;;;;7.50;3.53;;;;;;;20.08;55.32;97784.81;5050345;28;20182;-81
2022/10/12 09:27:14;;;;;;;4.27;2.77;;;;;;;20.03;55.43;97775.59;5046682;28;20196;-78
2022/10/12 09:29:49;;;;;;;6.67;3.80;;;;;;;20.07;54.46;97790.19;5047838;28;20193;-75
2022/10/12 09:32:32;;;;;;;4.83;3.10;;;;;;;20.02;54.14;97772.09;5050170;28;20294;-77
2022/10/12 09:34:59;;;;;;;5.63;3.03;;;;;;;20.14;53.47;97765.09;5047992;28;20664;-75
2022/10/12 09:37:33;;;;;;;5.80;3.30;;;;;;;19.95;54.11;97777.88;5050235;28;20227;-78
2022/10/12 09:40:03;;;;;;;6.03;3.17;;;;;;;19.83;54.95;97770.88;5047440;28;20573;-77
2022/10/12 09:42:36;;;;;;;10.87;4.60;;;;;;;20.22;54.21;97782.06;5047908;28;20269;-75
2022/10/12 09:45:38;;;;;;;11.40;3.87;;;;;;;20.45;53.32;97779.53;5048919;28;20220;-78
2022/10/12 09:48:14;;;;;;;7.57;3.13;;;;;;;20.72;52.67;97778.34;5048363;28;20731;-78
2022/10/12 09:50:44;;;;;;;10.23;3.47;;;;;;;20.98;51.76;97779.84;5049696;28;20213;-84
2022/10/12 09:53:27;;;;;;;4.97;3.37;;;;;;;21.14;50.93;97760.28;5046639;28;20726;-75
2022/10/12 09:56:06;;;;;;;10.43;4.33;;;;;;;21.24;50.20;97767.38;5028823;28;20240;-77
2022/10/12 09:58:42;;;;;;;10.53;3.80;;;;;;;21.10;50.42;97772.84;5047583;28;20285;-77
2022/10/12 10:01:18;;;;;;;4.70;3.27;;;;;;;20.91;49.70;97770.75;5046845;28;20521;-77
2022/10/12 10:03:50;;;;;;;5.53;3.63;;;;;;;20.89;49.79;97758.63;5048754;28;20190;-76
2022/10/12 10:06:25;;;;;;;6.40;4.13;;;;;;;20.82;50.70;97768.78;5047940;28;20221;-79
2022/10/12 10:08:53;;;;;;;8.40;4.63;;;;;;;20.78;51.25;97753.34;5048906;28;20186;-76
2022/10/12 10:11:27;;;;;;;6.23;3.80;;;;;;;20.59;51.87;97740.72;5048126;28;20221;-77
2022/10/12 10:13:54;;;;;;;6.77;3.60;;;;;;;20.73;51.92;97745.78;5030124;28;20205;-79
2022/10/12 10:16:25;;;;;;;5.83;4.23;;;;;;;20.49;52.06;97726.56;5046588;28;20738;-78
2022/10/12 10:18:52;;;;;;;8.67;4.23;;;;;;;21.05;50.42;97749.50;5046611;28;20232;-80
2022/10/12 10:21:40;;;;;;;5.47;4.03;;;;;;;20.97;49.74;97733.41;5046995;28;20182;-78
2022/10/12 10:24:28;;;;;;;5.33;3.73;;;;;;;20.88;49.52;97731.47;5046746;28;20240;-77
2022/10/12 10:27:00;;;;;;;6.83;3.97;;;;;;;20.89;46.75;97740.22;5048361;28;20281;-76
2022/10/12 10:29:39;;;;;;;10.77;3.97;;;;;;;20.80;44.37;97718.03;5046671;28;20201;-76
2022/10/12 10:32:25;;;;;;;5.87;3.40;;;;;;;20.80;43.06;97740.88;5047713;28;20226;-79
2022/10/12 10:35:11;;;;;;;10.80;3.60;;;;;;;20.49;43.70;97738.88;5081265;28;20209;-77
2022/10/12 10:37:59;;;;;;;11.17;3.83;;;;;;;20.20;42.52;97710.31;5060725;28;20216;-78
2022/10/12 10:40:31;;;;;;;6.30;2.93;;;;;;;20.28;41.13;97733.41;5068425;28;20192;-77
2022/10/12 10:43:06;;;;;;;5.37;2.83;;;;;;;20.16;40.22;97721.13;5073204;28;20209;-75
2022/10/12 10:45:47;;;;;;;7.37;3.10;;;;;;;20.12;38.84;97724.94;5054791;28;20228;-74
2022/10/12 10:48:21;;;;;;;5.13;2.93;;;;;;;20.03;37.20;97731.69;5066966;28;20192;-76
2022/10/12 10:50:55;;;;;;;9.93;3.50;;;;;;;19.89;39.82;97723.13;5065925;28;20215;-78
2022/10/12 10:53:25;;;;;;;4.87;3.27;;;;;;;19.77;41.27;97716.13;5066697;28;20198;-78
2022/10/12 10:55:55;;;;;;;6.73;3.20;;;;;;;19.90;41.98;97724.81;5056505;28;20663;-79
2022/10/12 10:58:47;;;;;;;9.27;3.90;;;;;;;20.14;40.94;97725.66;5070091;28;20212;-78
2022/10/12 11:01:43;;;;;;;5.40;2.87;;;;;;;20.33;39.31;97712.88;5049873;28;20261;-80
2022/10/12 11:04:22;;;;;;;6.77;3.83;;;;;;;20.42;39.52;97709.56;5049113;28;20196;-78
2022/10/12 11:07:04;;;;;;;5.83;3.57;;;;;;;20.03;40.37;97700.13;5064080;28;20193;-79
2022/10/12 11:09:40;;;;;;;5.00;3.40;;;;;;;20.04;41.16;97706.25;5067399;28;20193;-79
2022/10/12 11:12:16;;;;;;;5.83;3.17;;;;;;;20.00;41.13;97700.38;5064643;28;20303;-75
2022/10/12 11:14:49;;;;;;;8.27;5.30;;;;;;;20.09;40.93;97698.88;5067179;28;20200;-74
2022/10/12 11:17:21;;;;;;;7.47;3.03;;;;;;;20.10;40.65;97696.13;5065674;28;20289;-75
2022/10/12 11:19:56;;;;;;;5.27;4.27;;;;;;;20.31;40.63;97706.03;5067348;28;20285;-77
2022/10/12 11:22:31;;;;;;;4.53;3.33;;;;;;;20.40;40.82;97698.31;5067368;28;20192;-74
2022/10/12 11:25:25;;;;;;;10.80;4.17;;;;;;;20.37;40.86;97697.69;5066776;28;20219;-73
2022/10/12 11:27:52;;;;;;;5.63;3.80;;;;;;;20.55;39.62;97699.78;5067301;28;20192;-74
2022/10/12 11:30:23;;;;;;;8.83;4.70;;;;;;;20.72;40.69;97695.88;5065351;28;20201;-74
2022/10/12 11:33:04;;;;;;;6.30;3.83;;;;;;;20.56;40.22;97690.94;5065949;28;20185;-75
2022/10/12 11:35:34;;;;;;;5.13;3.27;;;;;;;20.37;40.53;97693.28;5065690;28;20343;-71
2022/10/12 11:38:13;;;;;;;3.73;3.03;;;;;;;20.26;40.99;97686.16;5066280;28;20190;-73
2022/10/12 11:41:10;;;;;;;7.30;3.50;;;;;;;20.28;41.30;97683.41;5067046;28;20193;-72
2022/10/12 11:44:05;;;;;;;7.43;3.93;;;;;;;20.43;41.09;97674.41;5065252;28;20230;-73
2022/10/12 11:47:13;;;;;;;5.93;3.30;;;;;;;20.64;41.73;97674.56;5065832;28;20271;-76
2022/10/12 11:50:04;;;;;;;7.33;4.47;;;;;;;20.76;41.79;97679.75;5064720;28;20203;-77
2022/10/12 11:52:44;;;;;;;10.60;4.30;;;;;;;20.69;41.83;97673.25;5066583;28;20216;-74
2022/10/12 11:55:49;;;;;;;5.87;3.07;;;;;;;20.63;41.10;97684.25;5066119;28;20211;-74
2022/10/12 11:58:25;;;;;;;9.80;5.10;;;;;;;20.35;41.72;97668.88;5065023;28;20229;-75